sensor_id;sensor_type;location;lat;lon;timestamp;pressure;altitude;pressure_sealevel;temperature;humidity
43488;BME280;29078;41.932;25.554;2023-06-24T00:01:41;99488.94;;;26.03;42.87
43488;BME280;29078;41.932;25.554;2023-06-24T00:04:07;99474.13;;;25.85;43.08
43488;BME280;29078;41.932;25.554;2023-06-24T00:06:32;99480.28;;;25.95;43.18
43488;BME280;29078;41.932;25.554;2023-06-24T00:08:58;99538.03;;;26.25;43.37
43488;BME280;29078;41.932;25.554;2023-06-24T00:11:29;99463.91;;;25.77;43.09
43488;BME280;29078;41.932;25.554;2023-06-24T00:13:55;99536.16;;;26.20;43.29
43488;BME280;29078;41.932;25.554;2023-06-24T00:16:20;99510.09;;;25.90;43.25
43488;BME280;29078;41.932;25.554;2023-06-24T00:18:56;99519.78;;;25.96;43.61
43488;BME280;29078;41.932;25.554;2023-06-24T00:21:23;99547.69;;;25.87;44.00
43488;BME280;29078;41.932;25.554;2023-06-24T00:23:57;99468.38;;;25.42;43.72
43488;BME280;29078;41.932;25.554;2023-06-24T00:26:24;99468.38;;;25.42;43.83
43488;BME280;29078;41.932;25.554;2023-06-24T00:28:49;99488.88;;;25.53;43.81
43488;BME280;29078;41.932;25.554;2023-06-24T00:31:15;99518.53;;;25.79;44.08
43488;BME280;29078;41.932;25.554;2023-06-24T00:33:40;99460.53;;;25.46;44.27
43488;BME280;29078;41.932;25.554;2023-06-24T00:36:06;99468.66;;;25.46;44.14
43488;BME280;29078;41.932;25.554;2023-06-24T00:38:37;99529.13;;;25.70;44.13
43488;BME280;29078;41.932;25.554;2023-06-24T00:41:02;99421.19;;;25.09;44.49
43488;BME280;29078;41.932;25.554;2023-06-24T00:43:28;99487.06;;;25.39;44.64
43488;BME280;29078;41.932;25.554;2023-06-24T00:45:55;99525.06;;;25.62;44.39
43488;BME280;29078;41.932;25.554;2023-06-24T00:48:21;99455.50;;;25.09;44.85
43488;BME280;29078;41.932;25.554;2023-06-24T00:50:47;99449.84;;;25.10;44.68
43488;BME280;29078;41.932;25.554;2023-06-24T00:53:15;99436.63;;;24.98;44.66
43488;BME280;29078;41.932;25.554;2023-06-24T00:55:40;99525.94;;;25.48;44.90
43488;BME280;29078;41.932;25.554;2023-06-24T00:58:06;99505.41;;;25.42;45.28
43488;BME280;29078;41.932;25.554;2023-06-24T01:00:32;99452.84;;;24.93;45.27
43488;BME280;29078;41.932;25.554;2023-06-24T01:03:00;99518.44;;;25.29;45.11
43488;BME280;29078;41.932;25.554;2023-06-24T01:05:28;99515.97;;;25.38;45.13
43488;BME280;29078;41.932;25.554;2023-06-24T01:07:54;99438.53;;;24.88;44.95
43488;BME280;29078;41.932;25.554;2023-06-24T01:10:22;99509.75;;;25.38;44.96
43488;BME280;29078;41.932;25.554;2023-06-24T01:12:49;99467.13;;;25.09;45.00
43488;BME280;29078;41.932;25.554;2023-06-24T01:15:14;99503.56;;;25.32;45.06
43488;BME280;29078;41.932;25.554;2023-06-24T01:20:31;99459.06;;;24.99;45.25
43488;BME280;29078;41.932;25.554;2023-06-24T01:29:09;99500.63;;;25.13;45.74
43488;BME280;29078;41.932;25.554;2023-06-24T01:31:46;99490.91;;;25.07;45.89
43488;BME280;29078;41.932;25.554;2023-06-24T01:34:32;99475.25;;;24.94;45.85
43488;BME280;29078;41.932;25.554;2023-06-24T01:37:19;99497.69;;;24.99;46.42
43488;BME280;29078;41.932;25.554;2023-06-24T01:40:11;99384.09;;;24.30;46.35
43488;BME280;29078;41.932;25.554;2023-06-24T01:42:39;99510.38;;;25.04;46.36
43488;BME280;29078;41.932;25.554;2023-06-24T01:45:07;99518.47;;;25.04;46.42
43488;BME280;29078;41.932;25.554;2023-06-24T01:47:35;99452.91;;;24.53;46.46
43488;BME280;29078;41.932;25.554;2023-06-24T01:50:03;99504.44;;;24.82;47.11
43488;BME280;29078;41.932;25.554;2023-06-24T01:52:29;99502.03;;;24.65;47.21
43488;BME280;29078;41.932;25.554;2023-06-24T01:54:56;99465.00;;;24.25;47.80
43488;BME280;29078;41.932;25.554;2023-06-24T01:57:24;99449.34;;;23.96;47.99
43488;BME280;29078;41.932;25.554;2023-06-24T01:59:53;99476.03;;;23.98;48.36
43488;BME280;29078;41.932;25.554;2023-06-24T02:02:21;99481.44;;;23.98;48.56
43488;BME280;29078;41.932;25.554;2023-06-24T02:04:48;99502.22;;;24.13;48.63
43488;BME280;29078;41.932;25.554;2023-06-24T02:07:15;99529.22;;;24.23;48.79
43488;BME280;29078;41.932;25.554;2023-06-24T02:09:44;99450.34;;;23.75;48.72
43488;BME280;29078;41.932;25.554;2023-06-24T02:12:11;99482.50;;;23.97;48.92
43488;BME280;29078;41.932;25.554;2023-06-24T02:14:38;99527.91;;;24.30;48.56
43488;BME280;29078;41.932;25.554;2023-06-24T02:17:05;99519.22;;;24.18;48.88
43488;BME280;29078;41.932;25.554;2023-06-24T02:19:31;99471.97;;;23.90;49.13
43488;BME280;29078;41.932;25.554;2023-06-24T02:21:59;99496.53;;;23.99;49.08
43488;BME280;29078;41.932;25.554;2023-06-24T02:24:26;99488.44;;;23.89;48.99
43488;BME280;29078;41.932;25.554;2023-06-24T02:26:53;99494.09;;;23.87;48.97
43488;BME280;29078;41.932;25.554;2023-06-24T02:29:19;99535.38;;;24.03;49.45
43488;BME280;29078;41.932;25.554;2023-06-24T02:31:46;99477.75;;;23.52;49.64
43488;BME280;29078;41.932;25.554;2023-06-24T02:34:12;99539.66;;;23.89;49.66
43488;BME280;29078;41.932;25.554;2023-06-24T02:36:37;99494.22;;;23.55;49.73
43488;BME280;29078;41.932;25.554;2023-06-24T02:39:03;99544.19;;;23.78;49.98
43488;BME280;29078;41.932;25.554;2023-06-24T02:41:29;99527.41;;;23.61;49.98
43488;BME280;29078;41.932;25.554;2023-06-24T02:43:54;99510.06;;;23.46;50.18
43488;BME280;29078;41.932;25.554;2023-06-24T02:46:20;99538.19;;;23.61;50.22
43488;BME280;29078;41.932;25.554;2023-06-24T02:48:48;99486.84;;;23.30;50.13
43488;BME280;29078;41.932;25.554;2023-06-24T02:51:15;99541.72;;;23.66;50.41
43488;BME280;29078;41.932;25.554;2023-06-24T02:53:41;99487.63;;;23.26;50.37
43488;BME280;29078;41.932;25.554;2023-06-24T02:56:08;99499.19;;;23.26;50.34
43488;BME280;29078;41.932;25.554;2023-06-24T02:58:36;99542.47;;;23.57;50.58
43488;BME280;29078;41.932;25.554;2023-06-24T03:01:03;99562.75;;;23.64;50.54
43488;BME280;29078;41.932;25.554;2023-06-24T03:03:32;99566.53;;;23.68;50.72
43488;BME280;29078;41.932;25.554;2023-06-24T03:05:58;99509.25;;;23.46;50.47
43488;BME280;29078;41.932;25.554;2023-06-24T03:08:25;99503.31;;;23.44;50.40
43488;BME280;29078;41.932;25.554;2023-06-24T03:10:54;99567.94;;;23.81;50.43
43488;BME280;29078;41.932;25.554;2023-06-24T03:13:20;99503.84;;;23.41;50.43
43488;BME280;29078;41.932;25.554;2023-06-24T03:15:45;99564.72;;;23.79;50.31
43488;BME280;29078;41.932;25.554;2023-06-24T03:18:11;99492.78;;;23.37;50.23
43488;BME280;29078;41.932;25.554;2023-06-24T03:20:37;99542.06;;;23.80;49.99
43488;BME280;29078;41.932;25.554;2023-06-24T03:23:07;99536.69;;;23.80;49.91
43488;BME280;29078;41.932;25.554;2023-06-24T03:25:33;99489.94;;;23.59;49.54
43488;BME280;29078;41.932;25.554;2023-06-24T03:27:59;99482.38;;;23.56;49.21
43488;BME280;29078;41.932;25.554;2023-06-24T03:30:26;99497.50;;;23.62;49.11
43488;BME280;29078;41.932;25.554;2023-06-24T03:32:52;99574.50;;;24.05;48.67
43488;BME280;29078;41.932;25.554;2023-06-24T03:35:17;99568.31;;;24.05;48.79
43488;BME280;29078;41.932;25.554;2023-06-24T03:37:42;99509.91;;;23.63;48.52
43488;BME280;29078;41.932;25.554;2023-06-24T03:40:08;99531.22;;;23.70;48.39
43488;BME280;29078;41.932;25.554;2023-06-24T03:42:34;99532.03;;;23.70;48.33
43488;BME280;29078;41.932;25.554;2023-06-24T03:44:59;99564.75;;;23.89;49.01
43488;BME280;29078;41.932;25.554;2023-06-24T03:47:24;99574.41;;;23.80;49.51
43488;BME280;29078;41.932;25.554;2023-06-24T03:49:50;99577.28;;;23.63;49.98
43488;BME280;29078;41.932;25.554;2023-06-24T03:52:17;99507.94;;;23.01;50.34
43488;BME280;29078;41.932;25.554;2023-06-24T03:54:42;99583.59;;;23.37;50.70
43488;BME280;29078;41.932;25.554;2023-06-24T03:57:07;99592.16;;;23.29;51.03
43488;BME280;29078;41.932;25.554;2023-06-24T03:59:35;99559.66;;;23.03;51.14
43488;BME280;29078;41.932;25.554;2023-06-24T04:02:00;99555.56;;;22.96;51.39
43488;BME280;29078;41.932;25.554;2023-06-24T04:04:26;99591.84;;;23.20;51.56
43488;BME280;29078;41.932;25.554;2023-06-24T04:06:51;99590.25;;;23.24;51.50
43488;BME280;29078;41.932;25.554;2023-06-24T04:09:17;99547.22;;;22.97;51.43
43488;BME280;29078;41.932;25.554;2023-06-24T04:11:42;99526.97;;;22.90;51.62
43488;BME280;29078;41.932;25.554;2023-06-24T04:14:08;99599.72;;;23.32;51.61
43488;BME280;29078;41.932;25.554;2023-06-24T04:16:34;99591.13;;;23.35;51.33
43488;BME280;29078;41.932;25.554;2023-06-24T04:19:00;99567.59;;;23.20;51.43
43488;BME280;29078;41.932;25.554;2023-06-24T04:21:26;99531.56;;;22.94;51.63
43488;BME280;29078;41.932;25.554;2023-06-24T04:23:52;99560.63;;;23.24;51.28
43488;BME280;29078;41.932;25.554;2023-06-24T04:26:17;99581.44;;;23.39;51.25
43488;BME280;29078;41.932;25.554;2023-06-24T04:28:42;99594.97;;;23.49;51.00
43488;BME280;29078;41.932;25.554;2023-06-24T04:31:08;99566.06;;;23.34;50.67
43488;BME280;29078;41.932;25.554;2023-06-24T04:33:33;99548.25;;;23.28;50.69
43488;BME280;29078;41.932;25.554;2023-06-24T04:35:59;99572.63;;;23.54;50.29
43488;BME280;29078;41.932;25.554;2023-06-24T04:38:25;99552.09;;;23.42;50.16
43488;BME280;29078;41.932;25.554;2023-06-24T04:40:50;99563.25;;;23.61;50.12
43488;BME280;29078;41.932;25.554;2023-06-24T04:43:16;99591.44;;;23.86;49.85
43488;BME280;29078;41.932;25.554;2023-06-24T04:45:41;99572.56;;;23.86;49.64
43488;BME280;29078;41.932;25.554;2023-06-24T04:48:07;99587.44;;;23.98;49.59
43488;BME280;29078;41.932;25.554;2023-06-24T04:50:32;99582.06;;;24.03;49.95
43488;BME280;29078;41.932;25.554;2023-06-24T04:52:57;99580.16;;;24.04;49.88
43488;BME280;29078;41.932;25.554;2023-06-24T04:55:23;99586.69;;;24.18;49.77
43488;BME280;29078;41.932;25.554;2023-06-24T04:57:49;99534.00;;;23.90;49.41
43488;BME280;29078;41.932;25.554;2023-06-24T05:00:14;99538.88;;;23.98;49.03
43488;BME280;29078;41.932;25.554;2023-06-24T05:02:40;99542.13;;;24.00;48.61
43488;BME280;29078;41.932;25.554;2023-06-24T05:05:05;99541.06;;;24.06;48.70
43488;BME280;29078;41.932;25.554;2023-06-24T05:07:31;99542.69;;;24.13;48.75
43488;BME280;29078;41.932;25.554;2023-06-24T05:09:56;99519.22;;;24.08;48.89
43488;BME280;29078;41.932;25.554;2023-06-24T05:12:22;99560.28;;;24.35;48.95
43488;BME280;29078;41.932;25.554;2023-06-24T05:14:51;99590.84;;;24.61;48.85
43488;BME280;29078;41.932;25.554;2023-06-24T05:17:20;99593.56;;;24.66;48.79
43488;BME280;29078;41.932;25.554;2023-06-24T05:19:45;99526.50;;;24.18;48.49
43488;BME280;29078;41.932;25.554;2023-06-24T05:22:11;99582.22;;;24.64;48.82
43488;BME280;29078;41.932;25.554;2023-06-24T05:24:36;99587.88;;;24.63;48.94
43488;BME280;29078;41.932;25.554;2023-06-24T05:27:05;99568.16;;;24.52;48.55
43488;BME280;29078;41.932;25.554;2023-06-24T05:29:32;99603.81;;;24.80;48.84
43488;BME280;29078;41.932;25.554;2023-06-24T05:31:58;99564.63;;;24.52;48.82
43488;BME280;29078;41.932;25.554;2023-06-24T05:34:24;99605.72;;;24.84;48.52
43488;BME280;29078;41.932;25.554;2023-06-24T05:36:49;99563.84;;;24.56;48.38
43488;BME280;29078;41.932;25.554;2023-06-24T05:39:15;99550.91;;;24.53;48.15
43488;BME280;29078;41.932;25.554;2023-06-24T05:41:40;99567.63;;;24.55;48.73
43488;BME280;29078;41.932;25.554;2023-06-24T05:44:09;99596.25;;;24.82;48.20
43488;BME280;29078;41.932;25.554;2023-06-24T05:46:36;99580.59;;;24.79;48.35
43488;BME280;29078;41.932;25.554;2023-06-24T05:49:01;99554.41;;;24.64;48.55
43488;BME280;29078;41.932;25.554;2023-06-24T05:51:27;99580.06;;;24.82;48.41
43488;BME280;29078;41.932;25.554;2023-06-24T05:53:53;99543.59;;;24.69;48.20
43488;BME280;29078;41.932;25.554;2023-06-24T05:56:20;99622.75;;;25.20;47.91
43488;BME280;29078;41.932;25.554;2023-06-24T05:58:45;99554.66;;;24.83;47.98
43488;BME280;29078;41.932;25.554;2023-06-24T06:01:11;99622.22;;;25.28;47.72
43488;BME280;29078;41.932;25.554;2023-06-24T06:03:36;99557.63;;;24.91;47.68
43488;BME280;29078;41.932;25.554;2023-06-24T06:06:02;99553.59;;;24.99;47.30
43488;BME280;29078;41.932;25.554;2023-06-24T06:08:27;99576.53;;;25.12;47.60
43488;BME280;29078;41.932;25.554;2023-06-24T06:10:53;99614.38;;;25.37;47.70
43488;BME280;29078;41.932;25.554;2023-06-24T06:13:18;99573.84;;;25.17;47.64
43488;BME280;29078;41.932;25.554;2023-06-24T06:15:44;99622.44;;;25.52;47.51
43488;BME280;29078;41.932;25.554;2023-06-24T06:18:09;99579.25;;;25.27;47.54
43488;BME280;29078;41.932;25.554;2023-06-24T06:20:34;99567.88;;;25.25;47.89
43488;BME280;29078;41.932;25.554;2023-06-24T06:23:00;99552.47;;;25.25;47.62
43488;BME280;29078;41.932;25.554;2023-06-24T06:25:25;99631.34;;;25.73;47.78
43488;BME280;29078;41.932;25.554;2023-06-24T06:27:51;99577.81;;;25.55;47.58
43488;BME280;29078;41.932;25.554;2023-06-24T06:30:16;99594.28;;;25.63;47.45
43488;BME280;29078;41.932;25.554;2023-06-24T06:32:42;99615.88;;;25.89;47.40
43488;BME280;29078;41.932;25.554;2023-06-24T06:35:08;99515.47;;;25.31;47.31
43488;BME280;29078;41.932;25.554;2023-06-24T06:37:34;99561.59;;;25.60;46.95
43488;BME280;29078;41.932;25.554;2023-06-24T06:39:59;99567.53;;;25.72;46.50
43488;BME280;29078;41.932;25.554;2023-06-24T06:42:25;99580.16;;;25.87;46.69
43488;BME280;29078;41.932;25.554;2023-06-24T06:44:50;99610.94;;;26.06;46.43
43488;BME280;29078;41.932;25.554;2023-06-24T06:47:15;99596.31;;;26.07;46.44
43488;BME280;29078;41.932;25.554;2023-06-24T06:49:41;99542.66;;;25.70;46.00
43488;BME280;29078;41.932;25.554;2023-06-24T06:52:07;99615.69;;;26.29;46.05
43488;BME280;29078;41.932;25.554;2023-06-24T06:54:32;99613.50;;;26.37;45.88
43488;BME280;29078;41.932;25.554;2023-06-24T06:57:02;99587.84;;;26.24;45.69
43488;BME280;29078;41.932;25.554;2023-06-24T06:59:28;99559.22;;;26.13;45.62
43488;BME280;29078;41.932;25.554;2023-06-24T07:01:53;99573.19;;;26.30;45.34
43488;BME280;29078;41.932;25.554;2023-06-24T07:04:19;99555.16;;;26.15;45.16
43488;BME280;29078;41.932;25.554;2023-06-24T07:06:44;99551.03;;;26.23;45.14
43488;BME280;29078;41.932;25.554;2023-06-24T07:09:10;99561.00;;;26.38;44.61
43488;BME280;29078;41.932;25.554;2023-06-24T07:11:35;99600.53;;;26.73;44.62
43488;BME280;29078;41.932;25.554;2023-06-24T07:14:00;99595.63;;;26.80;44.75
43488;BME280;29078;41.932;25.554;2023-06-24T07:16:26;99541.91;;;26.53;44.62
43488;BME280;29078;41.932;25.554;2023-06-24T07:18:51;99529.22;;;26.48;44.67
43488;BME280;29078;41.932;25.554;2023-06-24T07:21:16;99529.47;;;26.52;44.53
43488;BME280;29078;41.932;25.554;2023-06-24T07:23:42;99518.34;;;26.53;44.55
43488;BME280;29078;41.932;25.554;2023-06-24T07:26:07;99543.09;;;26.76;44.08
43488;BME280;29078;41.932;25.554;2023-06-24T07:28:33;99533.94;;;26.67;44.17
43488;BME280;29078;41.932;25.554;2023-06-24T07:30:58;99534.69;;;26.77;44.04
43488;BME280;29078;41.932;25.554;2023-06-24T07:33:23;99583.94;;;27.18;43.56
43488;BME280;29078;41.932;25.554;2023-06-24T07:35:49;99545.84;;;27.05;43.50
43488;BME280;29078;41.932;25.554;2023-06-24T07:38:14;99538.53;;;27.05;43.49
43488;BME280;29078;41.932;25.554;2023-06-24T07:40:40;99530.28;;;27.15;43.44
43488;BME280;29078;41.932;25.554;2023-06-24T07:43:05;99539.97;;;27.21;43.06
43488;BME280;29078;41.932;25.554;2023-06-24T07:45:31;99588.91;;;27.64;42.88
43488;BME280;29078;41.932;25.554;2023-06-24T07:47:56;99581.47;;;27.75;42.87
43488;BME280;29078;41.932;25.554;2023-06-24T07:50:22;99532.38;;;27.47;42.50
43488;BME280;29078;41.932;25.554;2023-06-24T07:52:47;99552.59;;;27.60;42.40
43488;BME280;29078;41.932;25.554;2023-06-24T07:55:12;99511.47;;;27.48;42.29
43488;BME280;29078;41.932;25.554;2023-06-24T07:57:38;99576.34;;;27.92;41.90
43488;BME280;29078;41.932;25.554;2023-06-24T08:00:06;99577.69;;;27.95;42.37
43488;BME280;29078;41.932;25.554;2023-06-24T08:02:36;99576.88;;;27.94;41.99
43488;BME280;29078;41.932;25.554;2023-06-24T08:05:02;99589.66;;;28.12;41.78
43488;BME280;29078;41.932;25.554;2023-06-24T08:07:28;99558.91;;;27.98;41.87
43488;BME280;29078;41.932;25.554;2023-06-24T08:09:53;99553.69;;;28.02;41.72
43488;BME280;29078;41.932;25.554;2023-06-24T08:12:18;99585.97;;;28.27;41.65
43488;BME280;29078;41.932;25.554;2023-06-24T08:14:44;99568.22;;;28.11;41.36
43488;BME280;29078;41.932;25.554;2023-06-24T08:17:09;99592.66;;;28.35;41.39
43488;BME280;29078;41.932;25.554;2023-06-24T08:19:34;99588.25;;;28.39;41.12
43488;BME280;29078;41.932;25.554;2023-06-24T08:22:00;99564.97;;;28.33;41.31
43488;BME280;29078;41.932;25.554;2023-06-24T08:24:25;99552.09;;;28.20;41.28
43488;BME280;29078;41.932;25.554;2023-06-24T08:26:51;99517.66;;;28.15;41.24
43488;BME280;29078;41.932;25.554;2023-06-24T08:29:18;99578.91;;;28.64;41.42
43488;BME280;29078;41.932;25.554;2023-06-24T08:31:43;99596.94;;;28.92;41.53
43488;BME280;29078;41.932;25.554;2023-06-24T08:34:09;99559.91;;;28.77;40.75
43488;BME280;29078;41.932;25.554;2023-06-24T08:36:34;99604.25;;;29.10;40.91
43488;BME280;29078;41.932;25.554;2023-06-24T08:39:01;99595.00;;;29.25;40.64
43488;BME280;29078;41.932;25.554;2023-06-24T08:41:27;99542.47;;;28.97;40.40
43488;BME280;29078;41.932;25.554;2023-06-24T08:43:53;99597.88;;;29.48;40.90
43488;BME280;29078;41.932;25.554;2023-06-24T08:46:24;99596.69;;;29.54;40.09
43488;BME280;29078;41.932;25.554;2023-06-24T08:48:53;99595.78;;;29.58;40.55
43488;BME280;29078;41.932;25.554;2023-06-24T08:51:26;99571.97;;;29.36;40.23
43488;BME280;29078;41.932;25.554;2023-06-24T08:53:53;99596.78;;;29.62;40.63
43488;BME280;29078;41.932;25.554;2023-06-24T08:56:19;99594.25;;;29.66;40.33
43488;BME280;29078;41.932;25.554;2023-06-24T08:58:44;99598.72;;;29.76;40.30
43488;BME280;29078;41.932;25.554;2023-06-24T09:01:10;99596.59;;;29.86;39.82
43488;BME280;29078;41.932;25.554;2023-06-24T09:03:36;99561.31;;;29.67;39.56
43488;BME280;29078;41.932;25.554;2023-06-24T09:06:02;99585.91;;;30.03;39.88
43488;BME280;29078;41.932;25.554;2023-06-24T09:08:27;99546.50;;;29.87;39.53
43488;BME280;29078;41.932;25.554;2023-06-24T09:10:55;99578.78;;;30.30;39.23
43488;BME280;29078;41.932;25.554;2023-06-24T09:13:21;99561.69;;;30.38;38.78
43488;BME280;29078;41.932;25.554;2023-06-24T09:15:52;99575.63;;;30.73;38.56
43488;BME280;29078;41.932;25.554;2023-06-24T09:18:18;99518.38;;;30.50;37.70
43488;BME280;29078;41.932;25.554;2023-06-24T09:20:43;99518.72;;;30.71;37.59
43488;BME280;29078;41.932;25.554;2023-06-24T09:23:10;99549.06;;;31.09;37.26
43488;BME280;29078;41.932;25.554;2023-06-24T09:25:36;99555.78;;;31.25;36.48
43488;BME280;29078;41.932;25.554;2023-06-24T09:28:02;99579.97;;;31.58;36.28
43488;BME280;29078;41.932;25.554;2023-06-24T09:30:28;99549.00;;;31.63;36.05
43488;BME280;29078;41.932;25.554;2023-06-24T09:32:55;99540.06;;;31.79;35.21
43488;BME280;29078;41.932;25.554;2023-06-24T09:35:22;99500.22;;;31.78;34.24
43488;BME280;29078;41.932;25.554;2023-06-24T09:37:54;99572.16;;;32.39;33.54
43488;BME280;29078;41.932;25.554;2023-06-24T09:40:23;99573.25;;;32.47;33.32
43488;BME280;29078;41.932;25.554;2023-06-24T09:42:53;99568.91;;;32.63;33.10
43488;BME280;29078;41.932;25.554;2023-06-24T09:45:23;99562.19;;;32.78;32.91
43488;BME280;29078;41.932;25.554;2023-06-24T09:47:49;99561.22;;;32.82;32.57
43488;BME280;29078;41.932;25.554;2023-06-24T09:50:15;99547.66;;;32.95;32.86
43488;BME280;29078;41.932;25.554;2023-06-24T09:52:43;99537.31;;;33.09;32.42
43488;BME280;29078;41.932;25.554;2023-06-24T09:55:14;99556.53;;;33.47;32.05
43488;BME280;29078;41.932;25.554;2023-06-24T09:57:42;99545.06;;;33.54;31.19
43488;BME280;29078;41.932;25.554;2023-06-24T10:00:10;99544.63;;;33.72;31.47
43488;BME280;29078;41.932;25.554;2023-06-24T10:02:36;99540.19;;;33.89;30.94
43488;BME280;29078;41.932;25.554;2023-06-24T10:05:02;99498.88;;;33.73;30.19
43488;BME280;29078;41.932;25.554;2023-06-24T10:07:28;99543.59;;;34.06;30.02
43488;BME280;29078;41.932;25.554;2023-06-24T10:09:54;99490.75;;;33.85;30.09
43488;BME280;29078;41.932;25.554;2023-06-24T10:12:20;99497.63;;;34.12;30.31
43488;BME280;29078;41.932;25.554;2023-06-24T10:14:46;99465.63;;;34.04;29.50
43488;BME280;29078;41.932;25.554;2023-06-24T10:17:11;99464.94;;;34.28;29.69
43488;BME280;29078;41.932;25.554;2023-06-24T10:19:41;99515.59;;;34.76;29.15
43488;BME280;29078;41.932;25.554;2023-06-24T10:22:10;99506.56;;;34.96;29.08
43488;BME280;29078;41.932;25.554;2023-06-24T10:24:41;99503.38;;;35.18;29.06
43488;BME280;29078;41.932;25.554;2023-06-24T10:27:18;99475.69;;;35.11;28.49
43488;BME280;29078;41.932;25.554;2023-06-24T10:29:48;99440.69;;;34.96;28.57
43488;BME280;29078;41.932;25.554;2023-06-24T10:32:15;99481.31;;;35.39;27.88
43488;BME280;29078;41.932;25.554;2023-06-24T10:34:42;99426.75;;;35.13;28.23
43488;BME280;29078;41.932;25.554;2023-06-24T10:39:45;99481.63;;;35.74;27.94
43488;BME280;29078;41.932;25.554;2023-06-24T10:42:36;99477.78;;;36.03;27.73
43488;BME280;29078;41.932;25.554;2023-06-24T10:47:38;99472.59;;;36.14;27.28
43488;BME280;29078;41.932;25.554;2023-06-24T10:50:08;99410.44;;;35.81;26.90
43488;BME280;29078;41.932;25.554;2023-06-24T10:52:54;99480.31;;;36.36;27.25
43488;BME280;29078;41.932;25.554;2023-06-24T10:55:22;99462.00;;;36.56;26.97
43488;BME280;29078;41.932;25.554;2023-06-24T10:57:49;99457.41;;;36.76;26.85
43488;BME280;29078;41.932;25.554;2023-06-24T11:00:14;99443.56;;;36.72;26.32
43488;BME280;29078;41.932;25.554;2023-06-24T11:02:40;99458.50;;;36.87;25.93
43488;BME280;29078;41.932;25.554;2023-06-24T11:05:06;99392.00;;;36.53;25.85
43488;BME280;29078;41.932;25.554;2023-06-24T11:07:34;99451.91;;;37.07;25.76
43488;BME280;29078;41.932;25.554;2023-06-24T11:12:32;99443.75;;;37.27;24.72
43488;BME280;29078;41.932;25.554;2023-06-24T11:14:58;99391.47;;;36.95;24.53
43488;BME280;29078;41.932;25.554;2023-06-24T11:17:25;99438.78;;;37.32;24.27
43488;BME280;29078;41.932;25.554;2023-06-24T11:19:55;99412.75;;;37.30;23.98
43488;BME280;29078;41.932;25.554;2023-06-24T11:22:22;99424.41;;;37.23;24.16
43488;BME280;29078;41.932;25.554;2023-06-24T11:24:47;99429.72;;;37.32;23.92
43488;BME280;29078;41.932;25.554;2023-06-24T11:27:13;99380.97;;;37.16;23.74
43488;BME280;29078;41.932;25.554;2023-06-24T11:29:38;99414.66;;;37.64;22.91
43488;BME280;29078;41.932;25.554;2023-06-24T11:32:07;99424.56;;;37.84;22.97
43488;BME280;29078;41.932;25.554;2023-06-24T11:34:34;99414.94;;;37.94;22.13
43488;BME280;29078;41.932;25.554;2023-06-24T11:37:09;99370.47;;;37.76;22.12
43488;BME280;29078;41.932;25.554;2023-06-24T11:39:35;99363.19;;;37.68;22.14
43488;BME280;29078;41.932;25.554;2023-06-24T11:42:00;99397.38;;;37.83;22.39
43488;BME280;29078;41.932;25.554;2023-06-24T11:44:26;99374.75;;;37.74;23.04
43488;BME280;29078;41.932;25.554;2023-06-24T11:46:52;99402.38;;;37.97;23.01
43488;BME280;29078;41.932;25.554;2023-06-24T11:49:18;99364.38;;;37.87;22.84
43488;BME280;29078;41.932;25.554;2023-06-24T11:51:49;99299.69;;;37.42;22.09
43488;BME280;29078;41.932;25.554;2023-06-24T11:54:19;99397.56;;;38.13;21.98
43488;BME280;29078;41.932;25.554;2023-06-24T11:56:50;99342.19;;;37.79;21.54
43488;BME280;29078;41.932;25.554;2023-06-24T11:59:26;99373.22;;;37.96;22.00
43488;BME280;29078;41.932;25.554;2023-06-24T12:01:57;99346.75;;;37.91;22.10
43488;BME280;29078;41.932;25.554;2023-06-24T12:04:33;99322.47;;;37.77;21.95
43488;BME280;29078;41.932;25.554;2023-06-24T12:06:59;99365.94;;;38.26;22.18
43488;BME280;29078;41.932;25.554;2023-06-24T12:09:25;99335.91;;;38.21;22.33
43488;BME280;29078;41.932;25.554;2023-06-24T12:11:51;99329.09;;;38.15;21.92
43488;BME280;29078;41.932;25.554;2023-06-24T12:14:17;99363.53;;;38.47;21.43
43488;BME280;29078;41.932;25.554;2023-06-24T12:16:42;99329.38;;;38.10;21.88
43488;BME280;29078;41.932;25.554;2023-06-24T12:19:08;99371.16;;;38.31;21.66
43488;BME280;29078;41.932;25.554;2023-06-24T12:21:34;99362.25;;;38.41;22.08
43488;BME280;29078;41.932;25.554;2023-06-24T12:24:01;99363.53;;;38.47;21.79
43488;BME280;29078;41.932;25.554;2023-06-24T12:26:26;99360.09;;;38.54;21.72
43488;BME280;29078;41.932;25.554;2023-06-24T12:28:55;99326.88;;;38.47;21.49
43488;BME280;29078;41.932;25.554;2023-06-24T12:31:21;99355.03;;;38.79;21.74
43488;BME280;29078;41.932;25.554;2023-06-24T12:33:47;99304.59;;;38.59;21.52
43488;BME280;29078;41.932;25.554;2023-06-24T12:36:12;99322.69;;;38.80;21.39
43488;BME280;29078;41.932;25.554;2023-06-24T12:38:38;99285.81;;;38.65;21.33
43488;BME280;29078;41.932;25.554;2023-06-24T12:41:03;99308.44;;;38.74;20.96
43488;BME280;29078;41.932;25.554;2023-06-24T12:43:29;99344.78;;;39.06;20.96
43488;BME280;29078;41.932;25.554;2023-06-24T12:45:54;99283.91;;;38.69;21.13
43488;BME280;29078;41.932;25.554;2023-06-24T12:48:21;99319.25;;;38.86;20.77
43488;BME280;29078;41.932;25.554;2023-06-24T12:50:46;99315.63;;;38.82;21.28
43488;BME280;29078;41.932;25.554;2023-06-24T12:53:12;99313.09;;;38.70;20.72
43488;BME280;29078;41.932;25.554;2023-06-24T12:55:39;99322.66;;;38.76;20.97
43488;BME280;29078;41.932;25.554;2023-06-24T12:58:04;99266.50;;;38.42;21.06
43488;BME280;29078;41.932;25.554;2023-06-24T13:00:30;99326.09;;;38.69;21.14
43488;BME280;29078;41.932;25.554;2023-06-24T13:02:55;99306.28;;;38.64;20.95
43488;BME280;29078;41.932;25.554;2023-06-24T13:05:21;99323.88;;;38.78;21.11